Time;durP1;ratioP1;P1;durP2;ratioP2;P2;SDS_P1;SDS_P2;PMS_P1;PMS_P2;Temp;Humidity;BMP_temperature;BMP_pressure;BME280_temperature;BME280_humidity;BME280_pressure;Samples;Min_cycle;Max_cycle;Signal;HPM_P1;HPM_P2
2022/06/13 00:00:42;;;;;;;9.80;8.65;;;;;;;14.75;75.58;98896.05;2238098;79;20948;-83
2022/06/13 00:03:42;;;;;;;10.18;9.20;;;;;;;14.69;76.00;98892.97;2238012;79;20967;-81
2022/06/13 00:06:43;;;;;;;11.18;8.85;;;;;;;14.64;76.03;98886.41;2238201;79;20916;-81
2022/06/13 00:09:43;;;;;;;9.50;8.60;;;;;;;14.62;76.30;98883.36;2238386;78;21011;-81
2022/06/13 00:12:44;;;;;;;9.58;8.75;;;;;;;14.59;76.34;98890.81;2238355;79;20920;-81
2022/06/13 00:15:44;;;;;;;9.73;8.65;;;;;;;14.54;76.48;98888.64;2238514;79;20916;-82
2022/06/13 00:18:47;;;;;;;9.90;8.78;;;;;;;14.49;76.24;98886.47;2238443;79;20872;-81
2022/06/13 00:21:45;;;;;;;8.88;7.90;;;;;;;14.48;76.62;98882.09;2238114;79;20987;-82
2022/06/13 00:24:45;;;;;;;8.98;7.95;;;;;;;14.48;76.49;98882.53;2238524;79;20916;-81
2022/06/13 00:27:46;;;;;;;9.95;7.90;;;;;;;14.45;76.56;98880.79;2238553;79;20975;-81
2022/06/13 00:30:46;;;;;;;12.23;7.95;;;;;;;14.47;76.75;98871.59;2238281;79;20987;-80
2022/06/13 00:33:46;;;;;;;7.92;7.33;;;;;;;14.46;76.69;98870.72;2237723;79;20931;-80
2022/06/13 00:36:47;;;;;;;9.10;7.70;;;;;;;14.45;76.70;98862.41;2237076;79;20920;-81
2022/06/13 00:39:47;;;;;;;9.65;7.53;;;;;;;14.47;77.21;98855.39;2237087;80;20975;-80
2022/06/13 00:42:48;;;;;;;9.45;8.38;;;;;;;14.48;77.12;98854.95;2237140;79;20932;-80
2022/06/13 00:45:48;;;;;;;11.65;7.80;;;;;;;14.50;77.37;98851.88;2237693;79;20892;-80
2022/06/13 00:48:49;;;;;;;8.73;8.03;;;;;;;14.48;77.28;98845.33;2237613;79;20927;-80
2022/06/13 00:51:49;;;;;;;13.88;8.83;;;;;;;14.46;77.43;98840.52;2237793;79;20943;-81
2022/06/13 00:54:49;;;;;;;9.40;8.60;;;;;;;14.43;77.93;98819.96;2227846;79;20991;-81
2022/06/13 00:57:50;;;;;;;10.75;8.38;;;;;;;14.44;78.07;98813.39;2224033;79;20963;-80
2022/06/13 01:00:51;;;;;;;8.85;7.95;;;;;;;14.42;78.08;98813.84;2215479;79;20961;-81
2022/06/13 01:03:50;;;;;;;8.95;8.10;;;;;;;14.46;78.44;98814.25;2210047;81;20917;-80
2022/06/13 01:06:51;;;;;;;8.48;7.62;;;;;;;14.50;78.33;98813.80;2210936;79;20941;-80
2022/06/13 01:13:10;;;;;;;8.45;7.65;;;;;;;14.40;78.00;98816.00;2210778;81;20929;-81
2022/06/13 01:16:10;;;;;;;9.35;8.45;;;;;;;14.27;78.33;98811.23;2210865;79;20973;-82
2022/06/13 01:19:11;;;;;;;9.65;8.70;;;;;;;14.31;81.34;98816.91;2210951;79;20971;-83
2022/06/13 01:22:11;;;;;;;56.13;13.95;;;;;;;15.55;83.93;98805.25;2210514;81;21011;-80
2022/06/13 01:25:12;;;;;;;15.50;9.10;;;;;;;16.68;80.56;98801.50;2209598;79;20873;-82
2022/06/13 01:28:12;;;;;;;20.77;9.23;;;;;;;17.60;76.86;98801.00;2209839;79;20975;-83
2022/06/13 01:31:13;;;;;;;12.45;8.13;;;;;;;18.30;74.17;98795.80;2211141;79;20908;-82
2022/06/13 01:34:13;;;;;;;8.45;7.55;;;;;;;18.78;72.07;98795.27;2211165;79;20921;-82
2022/06/13 01:37:13;;;;;;;7.60;6.90;;;;;;;19.09;68.97;98796.34;2211133;79;20913;-82
2022/06/13 01:40:14;;;;;;;7.28;6.67;;;;;;;18.91;68.05;98792.77;2210897;79;21011;-83
2022/06/13 01:43:14;;;;;;;7.70;7.00;;;;;;;18.95;69.14;98790.92;2211467;79;20890;-82
2022/06/13 01:46:14;;;;;;;9.93;7.15;;;;;;;19.16;68.03;98785.16;2211227;79;20874;-82
2022/06/13 01:49:15;;;;;;;9.53;7.25;;;;;;;19.37;67.57;98787.75;2211076;79;20924;-81
2022/06/13 01:52:15;;;;;;;7.75;6.95;;;;;;;19.43;64.89;98788.92;2211084;79;20976;-82
2022/06/13 01:55:16;;;;;;;7.67;6.97;;;;;;;18.36;63.99;98785.98;2227867;79;20986;-82
2022/06/13 01:58:16;;;;;;;8.70;6.40;;;;;;;17.40;64.89;98784.19;2238351;79;20946;-81
2022/06/13 02:01:17;;;;;;;7.22;6.53;;;;;;;16.64;66.32;98782.63;2238174;79;20939;-81
2022/06/13 02:04:18;;;;;;;10.00;7.15;;;;;;;16.02;67.61;98787.75;2237993;79;20955;-81
2022/06/13 02:07:18;;;;;;;9.58;7.47;;;;;;;15.63;69.02;98791.66;2238045;79;20888;-81
2022/06/13 02:10:19;;;;;;;7.70;6.87;;;;;;;15.29;69.78;98781.80;2237781;79;20971;-81
2022/06/13 02:13:19;;;;;;;7.50;6.80;;;;;;;14.97;70.75;98784.67;2237447;79;20944;-81
2022/06/13 02:16:20;;;;;;;109.22;15.98;;;;;;;14.73;71.53;98780.41;2237870;79;20959;-81
2022/06/13 02:19:20;;;;;;;8.05;6.95;;;;;;;14.57;72.49;98774.81;2237582;79;20952;-81
2022/06/13 02:22:21;;;;;;;7.72;6.95;;;;;;;14.44;72.97;98775.75;2237638;79;20935;-81
2022/06/13 02:25:21;;;;;;;52.95;12.10;;;;;;;14.31;73.39;98778.84;2237674;79;21315;-82
2022/06/13 02:28:21;;;;;;;12.90;7.80;;;;;;;14.22;73.96;98777.56;2237281;79;20884;-81
2022/06/13 02:31:22;;;;;;;8.33;7.53;;;;;;;14.15;74.51;98771.90;2237514;79;20908;-81
2022/06/13 02:34:22;;;;;;;11.90;8.08;;;;;;;14.08;75.24;98774.98;2237646;79;20912;-81
2022/06/13 02:37:23;;;;;;;9.40;7.60;;;;;;;14.05;75.46;98768.44;2237153;79;20912;-81
2022/06/13 02:40:23;;;;;;;10.05;7.60;;;;;;;14.07;75.81;98767.12;2236881;79;21038;-80
2022/06/13 02:43:23;;;;;;;8.58;7.85;;;;;;;14.07;76.10;98767.99;2236973;79;20916;-80
2022/06/13 02:46:24;;;;;;;10.98;8.48;;;;;;;14.10;76.37;98760.55;2237348;79;20908;-81
2022/06/13 02:49:24;;;;;;;8.10;7.30;;;;;;;14.16;76.64;98771.02;2237136;79;20912;-81
2022/06/13 02:52:25;;;;;;;9.88;8.18;;;;;;;14.11;76.40;98769.72;2237316;79;20924;-83
2022/06/13 02:55:25;;;;;;;32.88;10.63;;;;;;;14.11;76.77;98779.35;2237582;78;21403;-81
2022/06/13 02:58:25;;;;;;;11.83;10.63;;;;;;;14.22;77.81;98785.44;2237172;79;20920;-81
2022/06/13 03:01:26;;;;;;;13.22;12.03;;;;;;;14.34;79.41;98798.08;2237004;79;20947;-82
2022/06/13 03:04:26;;;;;;;14.28;11.25;;;;;;;14.37;82.90;98854.96;2237073;80;20970;-83
2022/06/13 03:07:27;;;;;;;12.28;11.18;;;;;;;14.35;81.79;98844.46;2237403;79;20967;-82
2022/06/13 03:10:28;;;;;;;13.53;10.98;;;;;;;14.48;80.79;98805.93;2236755;79;21010;-83
2022/06/13 03:13:30;;;;;;;17.92;14.85;;;;;;;14.57;81.23;98821.65;2237087;79;20928;-80
2022/06/13 03:16:28;;;;;;;24.85;16.10;;;;;;;14.66;80.80;98826.86;2236953;79;21331;-79
2022/06/13 03:19:28;;;;;;;12.15;10.88;;;;;;;14.80;80.71;98808.87;2237090;79;20908;-81
2022/06/13 03:22:29;;;;;;;134.87;20.75;;;;;;;14.84;80.38;98814.53;2237109;79;20999;-80
2022/06/13 03:25:29;;;;;;;311.62;36.23;;;;;;;14.87;80.14;98810.58;2237039;79;20943;-81
2022/06/13 03:28:29;;;;;;;21.33;10.65;;;;;;;14.89;80.00;98805.74;2236933;79;20935;-83
2022/06/13 03:31:30;;;;;;;11.75;9.90;;;;;;;14.95;80.12;98808.77;2236721;80;20987;-83
2022/06/13 03:34:33;;;;;;;18.80;10.70;;;;;;;14.95;79.88;98817.97;2237544;79;20924;-83
2022/06/13 03:37:33;;;;;;;10.10;8.93;;;;;;;15.06;79.95;98810.89;2192816;81;20986;-83
2022/06/13 03:40:33;;;;;;;11.55;9.28;;;;;;;15.13;79.65;98807.78;2235637;79;21022;-83
2022/06/13 03:43:34;;;;;;;27.50;10.30;;;;;;;15.10;79.54;98811.75;2235815;79;20998;-81
2022/06/13 03:46:34;;;;;;;24.92;12.13;;;;;;;15.13;79.81;98815.23;2236964;79;21319;-83
2022/06/13 03:49:35;;;;;;;187.03;21.23;;;;;;;15.28;79.92;98806.35;2236276;79;20920;-83
2022/06/13 03:52:35;;;;;;;20.90;10.30;;;;;;;15.54;80.66;98806.14;2235208;79;20987;-83
2022/06/13 03:55:35;;;;;;;16.45;9.60;;;;;;;16.43;81.67;98804.83;2234996;79;21030;-84
2022/06/13 03:58:36;;;;;;;11.25;8.70;;;;;;;17.42;79.50;98796.91;2235249;79;21062;-83
2022/06/13 04:01:36;;;;;;;11.38;8.73;;;;;;;18.42;76.58;98794.23;2235629;79;21014;-83
2022/06/13 04:04:37;;;;;;;12.45;8.18;;;;;;;19.09;73.58;98785.76;2236480;79;20955;-82
2022/06/13 04:07:37;;;;;;;12.82;7.60;;;;;;;19.60;71.56;98784.10;2236357;79;20982;-83
2022/06/13 04:10:37;;;;;;;8.10;7.30;;;;;;;19.65;69.68;98783.98;2235963;79;21061;-83
2022/06/13 04:13:38;;;;;;;135.00;12.73;;;;;;;20.08;69.05;98789.50;2236055;79;20978;-83
2022/06/13 04:16:38;;;;;;;9.13;6.58;;;;;;;20.26;68.03;98784.56;2235058;80;20990;-82
2022/06/13 04:19:39;;;;;;;18.12;7.65;;;;;;;20.75;67.38;98781.84;2234639;80;21465;-80
2022/06/13 04:22:39;;;;;;;11.15;7.33;;;;;;;21.24;66.05;98775.94;2235067;80;21019;-84
2022/06/13 04:25:39;;;;;;;14.98;7.28;;;;;;;21.36;65.05;98768.48;2235851;79;20931;-84
2022/06/13 04:28:40;;;;;;;308.07;29.35;;;;;;;21.27;64.42;98759.04;2236706;78;20971;-81
2022/06/13 04:31:40;;;;;;;72.55;12.60;;;;;;;21.75;63.71;98749.05;2236976;78;20955;-81
2022/06/13 04:34:41;;;;;;;18.55;8.35;;;;;;;22.07;62.59;98747.47;2236927;79;21388;-84
2022/06/13 04:37:41;;;;;;;13.80;7.80;;;;;;;22.14;62.25;98745.00;2235826;79;20978;-84
2022/06/13 04:40:42;;;;;;;17.87;8.58;;;;;;;22.04;60.61;98752.91;2234334;79;20991;-84
2022/06/13 04:43:42;;;;;;;38.42;10.32;;;;;;;21.71;60.55;98747.41;2233889;79;20932;-83
2022/06/13 04:46:42;;;;;;;47.00;10.78;;;;;;;21.30;60.27;98757.15;2235655;79;21022;-83
2022/06/13 04:49:43;;;;;;;51.35;10.53;;;;;;;20.94;61.85;98752.53;2235901;79;21002;-84
2022/06/13 04:52:44;;;;;;;34.78;9.83;;;;;;;21.52;62.44;98742.70;2235376;79;20967;-84
2022/06/13 04:55:44;;;;;;;20.72;8.23;;;;;;;22.06;61.32;98740.42;2234375;80;20979;-84
2022/06/13 04:58:44;;;;;;;26.60;14.03;;;;;;;22.41;60.77;98724.49;2234988;79;20931;-85
2022/06/13 05:01:46;;;;;;;67.10;15.75;;;;;;;22.67;60.21;98713.34;2213149;80;21026;-85
2022/06/13 05:04:49;;;;;;;23.98;8.28;;;;;;;22.85;58.90;98713.98;2213061;80;20963;-82
2022/06/13 05:07:49;;;;;;;16.25;6.28;;;;;;;22.90;56.80;98709.34;2235590;79;20982;-85
2022/06/13 05:10:59;;;;;;;30.32;7.08;;;;;;;22.53;56.47;98699.22;2212976;80;21418;-84
2022/06/13 05:13:59;;;;;;;31.02;7.30;;;;;;;22.17;57.47;98710.33;2184819;80;21011;-85
2022/06/13 05:17:02;;;;;;;8.85;5.40;;;;;;;22.09;57.69;98701.77;2233668;79;20982;-83
2022/06/13 05:20:04;;;;;;;13.28;4.58;;;;;;;22.11;57.33;98706.56;2211925;80;20954;-84
2022/06/13 05:23:08;;;;;;;8.18;4.30;;;;;;;22.28;56.50;98703.74;2186669;80;20979;-81
2022/06/13 05:26:09;;;;;;;8.65;4.50;;;;;;;22.40;55.72;98701.48;2232840;79;21050;-83
2022/06/13 05:29:09;;;;;;;21.68;5.20;;;;;;;22.53;55.58;98700.55;2232650;78;20991;-82
2022/06/13 05:32:10;;;;;;;25.05;4.70;;;;;;;22.50;55.64;98698.01;2233083;79;20997;-86
2022/06/13 05:35:13;;;;;;;8.20;4.90;;;;;;;22.59;54.85;98692.83;2233436;80;21617;-84
2022/06/13 05:38:15;;;;;;;4.62;4.10;;;;;;;22.51;55.19;98698.41;2211329;80;21021;-84
2022/06/13 05:41:15;;;;;;;7.62;4.35;;;;;;;22.48;54.27;98694.54;2210469;80;21030;-80
2022/06/13 05:44:16;;;;;;;25.10;5.67;;;;;;;22.55;54.18;98692.95;2233134;79;21015;-83
2022/06/13 05:47:16;;;;;;;8.80;4.12;;;;;;;22.78;51.91;98696.03;2232361;78;21015;-84
2022/06/13 05:50:19;;;;;;;6.90;4.12;;;;;;;23.07;52.97;98690.03;2232670;78;21030;-85
2022/06/13 05:53:23;;;;;;;9.70;4.22;;;;;;;23.19;52.84;98696.17;2233263;79;20983;-83
2022/06/13 05:56:24;;;;;;;19.00;4.42;;;;;;;23.14;51.79;98688.84;2210257;79;20980;-82
2022/06/13 05:59:24;;;;;;;77.53;66.92;;;;;;;23.21;52.71;98692.98;2205705;79;21003;-82
2022/06/13 06:02:24;;;;;;;12.15;8.98;;;;;;;23.38;49.39;98684.28;2205177;79;21011;-81
2022/06/13 06:05:26;;;;;;;8.50;5.80;;;;;;;23.60;51.69;98686.96;2204989;79;21018;-81
2022/06/13 06:08:26;;;;;;;7.33;4.72;;;;;;;23.82;51.60;98682.42;2204839;80;20936;-82
2022/06/13 06:11:27;;;;;;;8.53;5.12;;;;;;;23.86;50.59;98680.02;2204831;79;21908;-80
2022/06/13 06:14:27;;;;;;;9.98;6.58;;;;;;;24.01;49.54;98692.66;2205568;79;20976;-82
2022/06/13 06:17:27;;;;;;;14.07;6.75;;;;;;;23.91;48.59;98704.67;2205879;81;20992;-80
2022/06/13 06:20:28;;;;;;;6.58;5.95;;;;;;;24.19;50.78;98707.44;2205495;79;20944;-82
2022/06/13 06:23:28;;;;;;;8.75;6.58;;;;;;;24.54;50.09;98703.20;2204918;79;20948;-80
2022/06/13 06:26:29;;;;;;;10.90;6.28;;;;;;;24.85;49.84;98710.61;2205375;79;21128;-79
2022/06/13 06:29:29;;;;;;;7.50;6.10;;;;;;;25.35;49.29;98697.51;2205392;81;21030;-81
2022/06/13 06:32:32;;;;;;;8.25;6.58;;;;;;;25.80;47.45;98698.80;2204587;80;21458;-81
2022/06/13 06:35:33;;;;;;;;;;;;;;;25.95;45.21;98693.98;2208059;79;20996;-81
2022/06/13 06:38:33;;;;;;;6.58;4.97;;;;;;;25.84;46.67;98687.86;2205507;81;20365;-81
2022/06/13 06:41:34;;;;;;;8.28;4.58;;;;;;;25.74;47.17;98689.76;2205086;79;21011;-80
2022/06/13 06:44:34;;;;;;;12.10;5.12;;;;;;;25.46;46.07;98688.48;2205466;79;20956;-80
2022/06/13 06:47:35;;;;;;;10.53;4.92;;;;;;;24.96;45.90;98695.80;2204851;79;21387;-82
2022/06/13 06:50:35;;;;;;;6.22;4.28;;;;;;;24.70;47.70;98695.73;2205102;79;20924;-80
2022/06/13 07:00:13;;;;;;;10.93;4.28;;;;;;;24.36;47.67;98711.13;2232223;80;21034;-80
2022/06/13 07:03:13;;;;;;;5.50;4.08;;;;;;;24.25;49.16;98713.35;2233658;80;20967;-81
2022/06/13 07:06:14;;;;;;;7.33;4.50;;;;;;;24.17;49.13;98723.97;2233406;79;21461;-82
2022/06/13 07:09:14;;;;;;;10.63;4.80;;;;;;;24.12;49.03;98729.51;2232364;79;20928;-79
2022/06/13 07:12:16;;;;;;;5.20;4.67;;;;;;;24.12;48.48;98727.70;2231881;80;21011;-82
2022/06/13 07:15:16;;;;;;;19.62;5.75;;;;;;;24.12;49.23;98729.05;2232553;80;20990;-80
2022/06/13 07:18:17;;;;;;;5.92;5.37;;;;;;;24.17;50.28;98738.17;2233160;79;21391;-81
2022/06/13 07:21:17;;;;;;;9.15;6.12;;;;;;;24.30;49.68;98738.08;2232004;79;20963;-82
2022/06/13 07:24:17;;;;;;;10.53;5.20;;;;;;;24.26;50.39;98735.55;2232985;79;20932;-81
2022/06/13 07:27:18;;;;;;;9.70;4.70;;;;;;;23.98;51.20;98738.13;2233925;79;21301;-81
2022/06/13 07:30:18;;;;;;;4.60;4.20;;;;;;;23.77;52.14;98739.06;2234049;79;21314;-81
2022/06/13 07:33:19;;;;;;;6.05;4.33;;;;;;;23.80;51.82;98736.27;2233385;79;21011;-81
2022/06/13 07:36:19;;;;;;;5.53;5.00;;;;;;;23.74;52.41;98740.52;2233299;79;20963;-81
2022/06/13 07:39:20;;;;;;;6.50;5.15;;;;;;;23.69;52.66;98735.86;2232849;79;20951;-80
2022/06/13 07:42:20;;;;;;;18.85;5.40;;;;;;;23.78;53.06;98727.47;2232897;79;21963;-80
2022/06/13 07:45:21;;;;;;;6.35;4.78;;;;;;;24.21;52.34;98712.23;2232787;79;21342;-84
2022/06/13 07:48:21;;;;;;;6.05;4.62;;;;;;;24.52;50.95;98714.41;2233620;79;20986;-85
2022/06/13 07:51:21;;;;;;;8.80;4.37;;;;;;;24.77;50.51;98703.84;2234060;78;20920;-84
2022/06/13 07:54:24;;;;;;;4.10;3.72;;;;;;;25.02;49.71;98700.02;2234476;79;20943;-83
2022/06/13 07:57:24;;;;;;;4.72;4.20;;;;;;;25.07;49.52;98692.17;2212448;80;21410;-84
2022/06/13 08:00:25;;;;;;;6.08;4.70;;;;;;;24.72;50.02;98685.84;2233696;79;20963;-81
2022/06/13 08:03:25;;;;;;;5.95;4.65;;;;;;;24.52;51.06;98683.27;2234015;79;21006;-82
2022/06/13 08:06:25;;;;;;;65.10;9.15;;;;;;;24.36;52.09;98687.59;2234531;79;20955;-82
2022/06/13 08:09:27;;;;;;;11.80;4.60;;;;;;;24.25;53.16;98684.48;2233585;79;20975;-82
2022/06/13 08:12:26;;;;;;;26.90;5.80;;;;;;;24.24;53.52;98674.28;2232956;79;20979;-76
2022/06/13 08:15:27;;;;;;;5.62;4.70;;;;;;;24.06;53.49;98675.98;2232593;79;20983;-80
2022/06/13 08:18:27;;;;;;;6.67;4.97;;;;;;;23.78;53.71;98678.16;2232549;78;21011;-81
2022/06/13 08:21:27;;;;;;;8.08;4.85;;;;;;;23.32;55.11;98682.75;2234211;79;21338;-82
2022/06/13 08:24:27;;;;;;;6.83;5.03;;;;;;;23.08;56.17;98687.77;2233964;79;20955;-84
2022/06/13 08:27:28;;;;;;;7.92;4.90;;;;;;;22.85;57.44;98694.89;2233408;79;20983;-81
2022/06/13 08:30:28;;;;;;;5.33;4.83;;;;;;;22.55;59.30;98699.59;2233522;79;20964;-83
2022/06/13 08:33:29;;;;;;;6.00;5.40;;;;;;;22.29;59.25;98704.15;2232945;80;20995;-83
2022/06/13 08:36:29;;;;;;;7.70;6.10;;;;;;;21.89;61.74;98709.57;2233474;80;20955;-84
2022/06/13 08:39:33;;;;;;;6.33;5.72;;;;;;;21.57;61.49;98730.59;2212158;79;21118;-84
2022/06/13 08:42:33;;;;;;;8.23;5.90;;;;;;;21.43;62.59;98745.66;2233049;79;21913;-81
2022/06/13 08:45:33;;;;;;;11.83;6.37;;;;;;;21.27;64.26;98745.77;2234022;79;20994;-84
2022/06/13 08:48:34;;;;;;;12.95;7.60;;;;;;;21.20;65.25;98749.51;2234186;79;20924;-84
2022/06/13 08:51:34;;;;;;;6.87;6.28;;;;;;;21.10;66.38;98753.38;2233982;79;21002;-83
2022/06/13 08:54:35;;;;;;;7.75;6.45;;;;;;;20.96;69.11;98771.93;2233810;79;20983;-80
2022/06/13 08:57:35;;;;;;;8.18;6.83;;;;;;;20.65;69.52;98780.38;2232827;79;20975;-81
2022/06/13 09:00:36;;;;;;;7.20;6.50;;;;;;;20.53;70.11;98786.05;2232954;79;20936;-83
2022/06/13 09:03:36;;;;;;;10.40;7.55;;;;;;;20.60;70.42;98787.60;2233969;79;20983;-83
2022/06/13 09:06:36;;;;;;;7.78;6.97;;;;;;;20.66;70.32;98789.61;2235077;80;20955;-83
2022/06/13 09:09:37;;;;;;;12.05;7.72;;;;;;;20.63;71.05;98796.80;2233665;79;21010;-84
2022/06/13 09:12:37;;;;;;;8.18;7.33;;;;;;;20.72;71.36;98787.69;2232958;79;21696;-82
2022/06/13 09:15:38;;;;;;;8.40;7.28;;;;;;;20.56;71.49;98780.65;2233092;79;20940;-84
2022/06/13 09:18:40;;;;;;;9.58;7.10;;;;;;;20.62;71.35;98769.86;2233220;79;20971;-85
2022/06/13 09:21:43;;;;;;;8.83;7.30;;;;;;;20.77;71.08;98764.55;2211027;80;21418;-84
2022/06/13 09:24:48;;;;;;;10.25;7.62;;;;;;;21.21;70.82;98758.75;2185978;80;21026;-85
2022/06/13 09:27:48;;;;;;;7.35;6.22;;;;;;;21.55;69.92;98738.61;2233027;79;20995;-83
2022/06/13 09:30:56;;;;;;;7.50;6.53;;;;;;;21.56;67.98;98754.09;2210602;80;20971;-83
2022/06/13 09:33:59;;;;;;;7.90;7.17;;;;;;;21.42;68.55;98738.62;2233705;79;21020;-83
2022/06/13 09:37:00;;;;;;;12.28;10.93;;;;;;;21.45;68.86;98737.65;2233834;79;21036;-82
2022/06/13 09:40:00;;;;;;;11.75;8.68;;;;;;;21.58;68.95;98745.14;2234346;78;21006;-85
2022/06/13 09:43:01;;;;;;;7.45;6.47;;;;;;;21.78;69.05;98746.28;2235203;79;21512;-83
2022/06/13 09:46:01;;;;;;;6.87;5.65;;;;;;;21.91;68.22;98754.23;2234527;79;21473;-84
2022/06/13 09:49:01;;;;;;;5.53;4.87;;;;;;;21.91;68.24;98767.52;2236104;79;20927;-83
2022/06/13 09:52:02;;;;;;;7.58;5.75;;;;;;;21.55;67.85;98766.50;2234075;79;20970;-84
2022/06/13 09:55:02;;;;;;;8.03;5.17;;;;;;;21.50;68.96;98751.18;2233762;80;20971;-84
2022/06/13 09:58:03;;;;;;;6.72;5.62;;;;;;;21.36;68.96;98737.95;2233673;79;21011;-85
2022/06/13 10:01:03;;;;;;;6.53;5.85;;;;;;;21.45;69.40;98731.01;2235265;79;20936;-83
2022/06/13 10:04:03;;;;;;;6.20;4.92;;;;;;;21.79;68.79;98730.75;2234582;79;21322;-84
2022/06/13 10:07:04;;;;;;;8.63;6.30;;;;;;;21.53;67.23;98722.32;2235019;79;20963;-82
2022/06/13 10:10:04;;;;;;;6.03;4.75;;;;;;;21.18;68.17;98715.51;2234768;79;20955;-82
2022/06/13 10:13:14;;;;;;;5.50;4.77;;;;;;;21.04;68.96;98701.83;2234337;80;20960;-85
2022/06/13 10:16:11;;;;;;;7.80;5.90;;;;;;;21.09;70.13;98699.43;2234840;80;21308;-84
2022/06/13 10:19:11;;;;;;;6.97;5.50;;;;;;;21.25;70.45;98704.67;2234482;79;20983;-84
2022/06/13 10:22:11;;;;;;;6.42;5.47;;;;;;;21.41;70.58;98712.12;2233913;79;21018;-82
2022/06/13 10:25:12;;;;;;;5.70;5.20;;;;;;;21.58;70.54;98725.69;2233422;79;21027;-83
2022/06/13 10:28:12;;;;;;;5.97;5.47;;;;;;;21.48;69.01;98716.30;2233563;79;21073;-83
2022/06/13 10:31:12;;;;;;;8.08;5.12;;;;;;;21.29;69.63;98693.48;2234377;80;20931;-84
2022/06/13 10:34:13;;;;;;;10.03;8.13;;;;;;;20.68;67.66;98692.77;2234895;80;21399;-85
2022/06/13 10:37:13;;;;;;;8.43;6.05;;;;;;;20.62;70.89;98696.94;2234717;80;21015;-84
2022/06/13 10:40:14;;;;;;;7.03;4.70;;;;;;;20.87;71.84;98696.60;2234687;79;20927;-84
2022/06/13 10:43:14;;;;;;;5.12;4.50;;;;;;;20.91;70.50;98689.41;2234064;79;21581;-82
2022/06/13 10:46:14;;;;;;;7.70;6.72;;;;;;;20.85;70.93;98689.61;2233153;79;20943;-83
2022/06/13 10:49:15;;;;;;;4.78;4.35;;;;;;;20.85;71.57;98698.44;2233183;79;21051;-83
2022/06/13 10:52:15;;;;;;;12.37;4.33;;;;;;;20.97;70.13;98689.22;2233711;79;21030;-84
2022/06/13 10:55:18;;;;;;;4.70;4.28;;;;;;;21.04;70.31;98676.16;2212058;80;21018;-84
2022/06/13 10:58:18;;;;;;;6.60;4.10;;;;;;;21.43;69.88;98677.09;2234665;79;21403;-83
2022/06/13 11:01:19;;;;;;;6.55;3.42;;;;;;;21.58;69.06;98672.56;2234481;79;21394;-85
2022/06/13 11:04:21;;;;;;;5.87;3.00;;;;;;;21.50;68.27;98668.86;2234168;79;20990;-83
2022/06/13 11:07:21;;;;;;;5.95;3.40;;;;;;;21.33;67.72;98667.70;2213131;80;20982;-85
2022/06/13 11:10:22;;;;;;;4.35;3.33;;;;;;;21.07;68.91;98672.53;2237877;79;21082;-81
2022/06/13 11:13:22;;;;;;;4.80;3.00;;;;;;;21.00;69.32;98670.54;2237818;79;21014;-82
2022/06/13 11:23:00;;;;;;;4.00;3.10;;;;;;;20.88;69.00;98675.79;2234455;80;21022;-81
2022/06/13 11:26:02;;;;;;;5.28;2.92;;;;;;;20.86;69.81;98656.40;2233616;78;21119;-83
2022/06/13 11:29:03;;;;;;;3.27;2.95;;;;;;;20.88;68.87;98657.22;2233586;79;22176;-84
2022/06/13 11:32:02;;;;;;;5.53;4.78;;;;;;;20.74;68.60;98670.03;2233588;79;20990;-83
2022/06/13 11:35:02;;;;;;;5.75;4.37;;;;;;;20.83;69.75;98672.42;2233955;79;20989;-85
2022/06/13 11:38:02;;;;;;;4.50;4.05;;;;;;;21.04;68.12;98672.63;2234499;79;21029;-82
2022/06/13 11:41:03;;;;;;;2.95;2.65;;;;;;;20.99;68.31;98664.37;2235068;79;21007;-84
2022/06/13 11:44:03;;;;;;;4.65;3.75;;;;;;;20.95;68.12;98660.53;2234758;79;20971;-84
2022/06/13 11:47:04;;;;;;;4.33;3.27;;;;;;;20.91;68.81;98654.47;2233147;79;21015;-83
2022/06/13 11:50:04;;;;;;;3.55;3.25;;;;;;;21.10;69.84;98657.83;2233349;79;20990;-85
2022/06/13 11:56:24;;;;;;;4.83;3.72;;;;;;;21.52;68.63;98655.06;2223896;80;20995;-83
2022/06/13 11:59:24;;;;;;;8.75;4.45;;;;;;;21.31;67.41;98669.08;2205418;81;21000;-83
2022/06/13 12:02:26;;;;;;;4.85;3.75;;;;;;;21.12;67.19;98670.59;2192447;81;20965;-83
2022/06/13 12:05:28;;;;;;;3.70;3.30;;;;;;;20.98;66.97;98661.77;2205565;79;21881;-82
2022/06/13 12:08:30;;;;;;;8.50;3.35;;;;;;;21.14;66.82;98670.08;2205616;79;20964;-84
2022/06/13 12:11:31;;;;;;;6.22;3.45;;;;;;;21.48;65.30;98679.12;2205556;79;20987;-82
2022/06/13 12:14:31;;;;;;;14.93;3.37;;;;;;;21.66;64.72;98670.97;2205933;79;20952;-83
2022/06/13 12:17:31;;;;;;;4.20;3.22;;;;;;;21.87;63.96;98665.78;2206164;79;20937;-84
2022/06/13 12:20:32;;;;;;;2.50;2.30;;;;;;;22.08;63.01;98663.28;2206073;79;20980;-82
2022/06/13 12:23:32;;;;;;;4.03;2.90;;;;;;;21.93;62.21;98660.70;2206066;79;21055;-82
2022/06/13 12:26:33;;;;;;;6.00;2.90;;;;;;;21.74;62.57;98668.94;2205447;79;21027;-83
2022/06/13 12:29:33;;;;;;;6.00;3.45;;;;;;;21.46;62.70;98676.98;2206357;79;21344;-82
2022/06/13 12:32:33;;;;;;;4.28;3.58;;;;;;;21.19;64.79;98685.39;2205482;81;20953;-80
2022/06/13 12:35:34;;;;;;;5.15;4.25;;;;;;;20.73;65.26;98683.34;2205577;79;21064;-82
2022/06/13 12:38:34;;;;;;;4.72;4.30;;;;;;;20.85;66.90;98680.33;2207106;79;21352;-83
2022/06/13 12:41:35;;;;;;;7.05;4.30;;;;;;;20.94;66.15;98682.69;2205908;79;21035;-83
2022/06/13 12:44:35;;;;;;;5.40;4.25;;;;;;;20.90;66.82;98678.39;2205875;79;20993;-81
2022/06/13 12:47:35;;;;;;;5.55;5.12;;;;;;;20.82;66.84;98682.62;2205528;79;21726;-82
2022/06/13 12:50:36;;;;;;;6.65;5.10;;;;;;;20.55;67.32;98685.64;2205141;79;21332;-80
2022/06/13 12:53:36;;;;;;;6.53;5.92;;;;;;;20.01;69.62;98677.53;2205299;79;20952;-82
2022/06/13 12:56:37;;;;;;;8.30;7.10;;;;;;;19.94;72.07;98678.58;2205767;79;21060;-82
2022/06/13 12:59:37;;;;;;;9.83;8.58;;;;;;;19.70;73.00;98678.36;2205687;80;21420;-80
2022/06/13 13:02:37;;;;;;;7.85;6.85;;;;;;;19.46;73.93;98686.06;2205779;81;21052;-82
2022/06/13 13:05:38;;;;;;;8.88;7.97;;;;;;;19.13;74.55;98691.77;2206133;79;20996;-82
2022/06/13 13:08:38;;;;;;;5.35;3.02;;;;;;;18.75;75.68;98683.83;2206255;79;21023;-83
2022/06/13 13:11:39;;;;;;;5.08;2.20;;;;;;;18.64;70.96;98716.25;2205304;79;20937;-81
2022/06/13 13:14:40;;;;;;;2.17;1.60;;;;;;;18.63;70.17;98714.52;2205353;81;20988;-82
2022/06/13 13:17:39;;;;;;;1.62;1.52;;;;;;;18.56;66.15;98722.58;2205037;79;21410;-82
2022/06/13 13:20:40;;;;;;;2.58;1.40;;;;;;;18.59;65.57;98733.95;2205013;81;21031;-81
2022/06/13 13:23:40;;;;;;;3.27;1.50;;;;;;;19.07;63.54;98726.72;2204884;79;21305;-83
2022/06/13 13:26:47;;;;;;;1.72;1.62;;;;;;;19.51;64.20;98723.41;2204781;80;20980;-82
2022/06/13 13:29:41;;;;;;;2.60;1.50;;;;;;;19.59;63.32;98740.45;2205525;81;21039;-83
2022/06/13 13:32:41;;;;;;;2.62;1.62;;;;;;;19.28;62.32;98727.97;2206557;79;21019;-81
2022/06/13 13:35:42;;;;;;;1.75;1.50;;;;;;;18.92;62.69;98726.19;2206495;79;21000;-81
2022/06/13 13:38:42;;;;;;;2.00;1.77;;;;;;;18.54;63.49;98727.90;2206641;79;20960;-81
2022/06/13 13:41:43;;;;;;;2.75;1.90;;;;;;;18.13;64.42;98736.67;2206413;81;20987;-81
2022/06/13 13:44:43;;;;;;;4.12;1.90;;;;;;;17.75;64.23;98751.94;2205070;79;20992;-79
2022/06/13 13:47:44;;;;;;;2.12;1.80;;;;;;;17.41;66.58;98736.67;2205415;81;20960;-80
2022/06/13 13:50:44;;;;;;;2.08;1.90;;;;;;;17.17;67.02;98762.98;2205892;79;21426;-79
2022/06/13 13:53:44;;;;;;;2.90;2.02;;;;;;;16.97;67.63;98761.55;2205578;79;20980;-80
2022/06/13 13:56:45;;;;;;;3.05;2.02;;;;;;;16.82;68.44;98766.59;2205304;79;21098;-80
2022/06/13 13:59:45;;;;;;;2.95;1.95;;;;;;;16.74;69.25;98756.61;2205558;79;21007;-81
2022/06/13 14:02:46;;;;;;;4.53;2.10;;;;;;;16.72;69.99;98761.03;2205803;79;21522;-81
2022/06/13 14:05:46;;;;;;;6.50;2.00;;;;;;;16.64;70.85;98752.33;2205981;81;21059;-80
2022/06/13 14:08:46;;;;;;;3.22;2.30;;;;;;;16.56;71.25;98750.67;2206269;79;20912;-80
2022/06/13 14:11:47;;;;;;;5.15;2.35;;;;;;;16.56;72.25;98761.21;2206363;79;20991;-80
2022/06/13 14:14:47;;;;;;;3.15;2.00;;;;;;;16.49;72.62;98762.63;2206103;79;21398;-82
2022/06/13 14:17:48;;;;;;;7.20;2.15;;;;;;;16.33;73.14;98751.39;2207270;79;20948;-81
2022/06/13 14:20:48;;;;;;;5.30;3.37;;;;;;;16.10;73.75;98745.09;2206018;79;21258;-80
2022/06/13 14:23:48;;;;;;;2.58;2.37;;;;;;;16.01;75.06;98745.64;2206336;79;21383;-82